createdAt,value
2019-02-09T00:00:55.805Z,74.91
2019-02-09T00:01:55.793Z,73.98
2019-02-09T00:02:55.796Z,73.78
2019-02-09T00:03:57.269Z,74.60
2019-02-09T00:04:55.803Z,73.88
2019-02-09T00:05:55.751Z,74.19
2019-02-09T00:06:55.739Z,73.98
2019-02-09T00:07:55.725Z,73.78
2019-02-09T00:08:55.715Z,73.88
2019-02-09T00:09:55.728Z,73.78
2019-02-09T00:10:55.732Z,73.68
2019-02-09T00:11:55.685Z,73.98
2019-02-09T00:12:55.670Z,73.88
2019-02-09T00:13:55.662Z,74.60
2019-02-09T00:14:55.672Z,73.98
2019-02-09T00:15:55.639Z,74.19
2019-02-09T00:16:55.633Z,74.40
2019-02-09T00:17:55.636Z,75.01
2019-02-09T00:18:55.604Z,74.08
2019-02-09T00:19:55.593Z,73.88
2019-02-09T00:20:55.606Z,73.98
2019-02-09T00:21:55.573Z,73.98
2019-02-09T00:22:55.562Z,74.19
2019-02-09T00:23:55.581Z,73.78
2019-02-09T00:24:55.552Z,73.88
2019-02-09T00:25:55.552Z,74.29
2019-02-09T00:26:55.514Z,74.08
2019-02-09T00:27:55.504Z,74.60
2019-02-09T00:28:55.500Z,75.01
2019-02-09T00:29:55.512Z,74.60
2019-02-09T00:30:55.496Z,74.19
2019-02-09T00:31:55.489Z,74.60
2019-02-09T00:32:55.449Z,73.88
2019-02-09T00:33:55.439Z,75.12
2019-02-09T00:34:55.434Z,74.91
2019-02-09T00:35:55.473Z,75.12
2019-02-09T00:36:55.406Z,74.91
2019-02-09T00:37:55.395Z,76.56
2019-02-09T00:38:55.388Z,77.48
2019-02-09T00:39:55.371Z,77.93
2019-02-09T00:40:55.386Z,78.55
2019-02-09T00:41:55.370Z,78.65
2019-02-09T00:42:55.342Z,78.96
2019-02-09T00:43:55.328Z,78.96
2019-02-09T00:44:55.318Z,79.06
2019-02-09T00:45:55.331Z,79.27
2019-02-09T00:46:55.298Z,78.65
2019-02-09T00:47:55.299Z,78.75
2019-02-09T00:48:55.275Z,79.72
2019-02-09T00:49:55.264Z,80.23
2019-02-09T00:50:55.274Z,80.13
2019-02-09T00:51:55.241Z,80.19
2019-02-09T00:52:55.229Z,80.13
2019-02-09T00:53:55.225Z,80.95
2019-02-09T00:54:55.217Z,81.47
2019-02-09T00:55:55.227Z,81.40
2019-02-09T00:56:55.186Z,80.58
2019-02-09T00:57:55.174Z,80.89
2019-02-09T00:58:55.165Z,81.61
2019-02-09T00:59:55.155Z,82.02
2019-02-09T01:00:55.177Z,82.43
2019-02-09T01:01:55.140Z,83.77
2019-02-09T01:02:55.121Z,83.81
2019-02-09T01:03:55.112Z,84.22
2019-02-09T01:04:55.101Z,84.12
2019-02-09T01:05:55.109Z,83.29
2019-02-09T01:06:55.074Z,84.01
2019-02-09T01:07:55.083Z,85.46
2019-02-09T01:08:55.054Z,85.57
2019-02-09T01:09:55.045Z,85.60
2019-02-09T01:10:55.058Z,86.22
2019-02-09T01:11:55.027Z,85.81
2019-02-09T01:12:55.012Z,85.91
2019-02-09T01:13:55.042Z,86.12
2019-02-09T01:14:54.989Z,85.97
2019-02-09T01:15:55.001Z,85.77
2019-02-09T01:16:54.966Z,85.77
2019-02-09T01:17:54.955Z,86.22
2019-02-09T01:18:54.944Z,85.46
2019-02-09T01:19:54.955Z,84.43
2019-02-09T01:20:54.944Z,85.30
2019-02-09T01:21:54.910Z,84.47
2019-02-09T01:22:54.898Z,85.77
2019-02-09T01:23:54.889Z,85.71
2019-02-09T01:24:54.877Z,85.67
2019-02-09T01:25:54.910Z,86.02
2019-02-09T01:26:54.862Z,86.05
2019-02-09T01:27:54.845Z,87.35
2019-02-09T01:28:54.840Z,86.84
2019-02-09T01:30:02.080Z,86.78
2019-02-09T01:30:55.835Z,86.98
2019-02-09T01:31:54.805Z,86.63
2019-02-09T01:32:54.814Z,87.05
2019-02-09T01:33:54.777Z,85.81
2019-02-09T01:34:54.765Z,85.81
2019-02-09T01:35:54.791Z,85.71
2019-02-09T01:36:54.747Z,84.88
2019-02-09T01:37:54.734Z,84.57
2019-02-09T01:38:54.722Z,83.71
2019-02-09T01:39:54.745Z,83.33
2019-02-09T01:40:54.724Z,83.50
2019-02-09T01:41:54.692Z,83.75
2019-02-09T01:42:54.685Z,83.09
2019-02-09T01:43:54.667Z,83.50
2019-02-09T01:44:54.683Z,83.50
2019-02-09T01:45:54.686Z,82.98
2019-02-09T01:46:54.635Z,83.50
2019-02-09T01:47:54.623Z,82.47
2019-02-09T01:48:54.616Z,83.50
2019-02-09T01:49:54.627Z,82.37
2019-02-09T01:50:54.615Z,81.54
2019-02-09T01:51:54.603Z,82.16
2019-02-09T01:52:54.568Z,81.61
2019-02-09T01:53:54.557Z,82.37
2019-02-09T01:54:54.546Z,83.09
2019-02-09T01:55:54.557Z,82.47
2019-02-09T01:56:54.538Z,82.16
2019-02-09T01:57:54.527Z,81.54
2019-02-09T01:58:54.501Z,81.54
2019-02-09T01:59:54.494Z,81.30
2019-02-09T02:00:54.505Z,81.34
2019-02-09T02:01:54.468Z,81.54
2019-02-09T02:02:54.456Z,81.65
2019-02-09T02:03:54.449Z,81.85
2019-02-09T02:04:54.444Z,82.26
2019-02-09T02:05:54.448Z,82.26
2019-02-09T02:06:54.414Z,81.96
2019-02-09T02:07:54.402Z,81.65
2019-02-09T02:08:54.397Z,82.16
2019-02-09T02:09:54.396Z,82.26
2019-02-09T02:10:54.418Z,82.16
2019-02-09T02:11:54.357Z,82.06
2019-02-09T02:12:54.346Z,82.20
2019-02-09T02:13:54.336Z,82.61
2019-02-09T02:14:54.331Z,82.37
2019-02-09T02:15:54.337Z,83.09
2019-02-09T02:16:54.325Z,82.06
2019-02-09T02:17:54.291Z,82.16
2019-02-09T02:18:54.296Z,82.20
2019-02-09T02:19:54.268Z,82.47
2019-02-09T02:20:54.271Z,82.47
2019-02-09T02:21:54.287Z,83.50
2019-02-09T02:22:54.236Z,82.06
2019-02-09T02:23:54.225Z,81.44
2019-02-09T02:24:54.216Z,81.85
2019-02-09T02:25:54.203Z,81.51
2019-02-09T02:26:54.217Z,81.48
2019-02-09T02:27:54.197Z,82.37
2019-02-09T02:28:54.172Z,82.16
2019-02-09T02:29:54.159Z,81.51
2019-02-09T02:30:54.153Z,80.72
2019-02-09T02:31:54.171Z,81.65
2019-02-09T02:32:54.134Z,81.54
2019-02-09T02:33:54.133Z,81.61
2019-02-09T02:34:54.104Z,82.12
2019-02-09T02:35:54.094Z,81.40
2019-02-09T02:36:54.111Z,82.02
2019-02-09T02:37:54.072Z,82.06
2019-02-09T02:38:54.065Z,83.50
2019-02-09T02:39:54.068Z,82.12
2019-02-09T02:40:54.037Z,82.06
2019-02-09T02:41:54.050Z,82.57
2019-02-09T02:42:54.019Z,82.57
2019-02-09T02:43:54.008Z,82.43
2019-02-09T02:44:53.994Z,81.61
2019-02-09T02:45:54.035Z,81.61
2019-02-09T02:46:54.015Z,81.37
2019-02-09T02:47:53.963Z,81.98
2019-02-09T02:48:53.953Z,81.47
2019-02-09T02:49:53.942Z,81.88
2019-02-09T02:50:53.930Z,82.09
2019-02-09T02:51:53.958Z,82.12
2019-02-09T02:52:53.905Z,82.95
2019-02-09T02:53:53.897Z,83.26
2019-02-09T02:54:53.885Z,83.47
2019-02-09T02:55:53.875Z,84.29
2019-02-09T02:56:53.887Z,85.42
2019-02-09T02:57:53.864Z,87.01
2019-02-09T02:58:53.843Z,87.21
2019-02-09T02:59:53.830Z,87.87
2019-02-09T03:00:53.829Z,88.96
2019-02-09T03:01:53.834Z,88.80
2019-02-09T03:02:53.798Z,89.77
2019-02-09T03:03:53.809Z,89.98
2019-02-09T03:04:53.774Z,90.66
2019-02-09T03:05:53.764Z,90.76
2019-02-09T03:06:53.802Z,91.73
2019-02-09T03:07:53.743Z,91.11
2019-02-09T03:08:53.730Z,91.63
2019-02-09T03:09:53.729Z,91.52
2019-02-09T03:10:53.712Z,90.80
2019-02-09T03:11:53.700Z,90.59
2019-02-09T03:12:53.716Z,90.76
2019-02-09T03:13:53.697Z,90.59
2019-02-09T03:14:53.666Z,90.39
2019-02-09T03:15:53.660Z,91.22
2019-02-09T03:16:53.645Z,90.49
2019-02-09T03:17:53.680Z,90.08
2019-02-09T03:18:53.621Z,89.98
2019-02-09T03:19:53.609Z,90.25
2019-02-09T03:20:53.600Z,89.67
2019-02-09T03:21:53.607Z,90.35
2019-02-09T03:22:53.600Z,89.46
2019-02-09T03:23:53.564Z,89.77
2019-02-09T03:24:53.555Z,90.14
2019-02-09T03:25:53.544Z,89.94
2019-02-09T03:26:53.531Z,90.25
2019-02-09T03:27:53.565Z,91.11
2019-02-09T03:28:53.514Z,91.17
2019-02-09T03:29:53.499Z,90.76
2019-02-09T03:30:53.492Z,90.97
2019-02-09T03:31:53.484Z,90.70
2019-02-09T03:32:53.490Z,90.91
2019-02-09T03:33:53.458Z,89.98
2019-02-09T03:34:53.444Z,89.73
2019-02-09T03:35:53.433Z,91.01
2019-02-09T03:36:53.420Z,89.94
2019-02-09T03:37:53.433Z,90.97
2019-02-09T03:38:53.396Z,90.86
2019-02-09T03:39:53.426Z,90.49
2019-02-09T03:40:53.377Z,90.80
2019-02-09T03:41:53.364Z,91.83
2019-02-09T03:42:53.378Z,91.52
2019-02-09T03:43:53.342Z,91.32
2019-02-09T03:44:53.334Z,91.83
2019-02-09T03:45:53.361Z,91.83
2019-02-09T03:46:53.308Z,91.94
2019-02-09T03:47:53.321Z,92.14
2019-02-09T03:48:54.091Z,92.14
2019-02-09T03:49:53.278Z,92.29
2019-02-09T03:50:53.264Z,91.88
2019-02-09T03:51:53.278Z,92.40
2019-02-09T03:52:53.267Z,92.29
2019-02-09T03:53:53.232Z,92.29
2019-02-09T03:54:53.218Z,92.40
2019-02-09T03:55:53.211Z,92.50
2019-02-09T03:56:53.200Z,92.19
2019-02-09T03:57:53.244Z,91.88
2019-02-09T03:58:53.178Z,91.77
2019-02-09T03:59:53.168Z,91.83
2019-02-09T04:00:55.576Z,91.42
2019-02-09T04:01:53.141Z,91.42
2019-02-09T04:02:53.165Z,91.52
2019-02-09T04:03:53.134Z,91.36
2019-02-09T04:04:53.113Z,91.36
2019-02-09T04:05:53.099Z,91.46
2019-02-09T04:06:53.085Z,91.36
2019-02-09T04:07:53.073Z,91.46
2019-02-09T04:08:53.088Z,91.73
2019-02-09T04:09:53.063Z,91.88
2019-02-09T04:10:53.040Z,91.36
2019-02-09T04:11:53.032Z,91.46
2019-02-09T04:12:53.021Z,90.43
2019-02-09T04:13:53.032Z,90.43
2019-02-09T04:14:52.996Z,90.12
2019-02-09T04:15:53.007Z,90.22
2019-02-09T04:16:52.974Z,89.81
2019-02-09T04:17:52.962Z,89.61
2019-02-09T04:18:52.977Z,89.40
2019-02-09T04:19:52.944Z,89.50
2019-02-09T04:20:52.977Z,89.19
2019-02-09T04:21:52.939Z,89.40
2019-02-09T04:22:52.911Z,89.29
2019-02-09T04:23:52.921Z,89.09
2019-02-09T04:24:52.884Z,88.98
2019-02-09T04:25:52.872Z,88.57
2019-02-09T04:26:52.862Z,88.82
2019-02-09T04:27:52.875Z,89.34
2019-02-09T04:28:52.867Z,89.29
2019-02-09T04:29:52.832Z,88.71
2019-02-09T04:30:52.821Z,89.03
2019-02-09T04:31:52.814Z,89.13
2019-02-09T04:32:52.794Z,89.13
2019-02-09T04:33:52.830Z,88.41
2019-02-09T04:34:52.773Z,89.09
2019-02-09T04:35:52.761Z,89.23
2019-02-09T04:36:52.755Z,88.47
2019-02-09T04:37:52.739Z,88.47
2019-02-09T04:38:52.755Z,87.95
2019-02-09T04:39:52.733Z,87.65
2019-02-09T04:40:52.720Z,87.54
2019-02-09T04:41:52.694Z,86.51
2019-02-09T04:42:52.683Z,87.13
2019-02-09T04:43:52.703Z,87.13
2019-02-09T04:44:52.660Z,87.13
2019-02-09T04:45:52.672Z,87.44
2019-02-09T04:46:52.637Z,87.44
2019-02-09T04:47:52.628Z,87.13
2019-02-09T04:48:52.655Z,86.92
2019-02-09T04:49:52.605Z,87.74
2019-02-09T04:50:52.592Z,87.02
2019-02-09T04:51:52.605Z,87.13
2019-02-09T04:52:52.574Z,86.82
2019-02-09T04:53:52.562Z,86.41
2019-02-09T04:54:52.571Z,87.13
2019-02-09T04:55:52.538Z,86.20
2019-02-09T04:56:52.533Z,86.30
2019-02-09T04:57:52.518Z,86.16
2019-02-09T04:58:52.533Z,86.10
2019-02-09T04:59:52.531Z,85.85
2019-02-09T05:00:52.483Z,85.75
2019-02-09T05:01:52.472Z,85.33
2019-02-09T05:02:52.462Z,86.47
2019-02-09T05:03:52.449Z,85.44
2019-02-09T05:04:52.482Z,86.05
2019-02-09T05:05:52.426Z,85.75
2019-02-09T05:06:52.426Z,85.95
2019-02-09T05:07:52.404Z,86.36
2019-02-09T05:08:52.393Z,85.64
2019-02-09T05:09:52.406Z,86.05
2019-02-09T05:10:52.392Z,85.54
2019-02-09T05:11:52.358Z,85.64
2019-02-09T05:12:52.348Z,84.72
2019-02-09T05:13:52.343Z,83.54
2019-02-09T05:14:52.350Z,83.33
2019-02-09T05:15:52.315Z,83.75
2019-02-09T05:16:52.317Z,83.44
2019-02-09T05:17:52.297Z,83.44
2019-02-09T05:18:52.296Z,83.33
2019-02-09T05:19:52.293Z,83.75
2019-02-09T05:20:52.259Z,83.44
2019-02-09T05:21:52.249Z,83.54
2019-02-09T05:22:52.255Z,84.06
2019-02-09T05:23:52.231Z,83.85
2019-02-09T05:24:52.245Z,84.06
2019-02-09T05:25:52.203Z,83.75
2019-02-09T05:26:52.197Z,84.67
2019-02-09T05:27:52.184Z,84.99
2019-02-09T05:28:52.199Z,84.36
2019-02-09T05:29:52.185Z,84.67
2019-02-09T05:30:52.150Z,84.61
2019-02-09T05:31:52.139Z,84.47
2019-02-09T05:32:52.132Z,84.99
2019-02-09T05:33:52.115Z,84.27
2019-02-09T05:34:52.157Z,84.47
2019-02-09T05:35:52.096Z,84.78
2019-02-09T05:36:52.084Z,84.27
2019-02-09T05:37:52.071Z,83.75
2019-02-09T05:38:52.061Z,84.06
2019-02-09T05:39:52.075Z,84.06
2019-02-09T05:40:52.047Z,83.75
2019-02-09T05:41:52.030Z,83.85
2019-02-09T05:42:52.023Z,84.57
2019-02-09T05:43:52.007Z,84.88
2019-02-09T05:44:52.024Z,85.50
2019-02-09T05:45:51.985Z,85.50
2019-02-09T05:46:51.999Z,85.23
2019-02-09T05:47:51.961Z,85.50
2019-02-09T05:48:51.949Z,86.05
2019-02-09T05:49:51.975Z,85.85
2019-02-09T05:50:51.934Z,85.64
2019-02-09T05:51:51.917Z,85.75
2019-02-09T05:52:51.925Z,86.05
2019-02-09T05:53:51.894Z,85.85
2019-02-09T05:54:51.883Z,86.05
2019-02-09T05:55:51.897Z,86.22
2019-02-09T05:56:51.866Z,86.16
2019-02-09T05:57:51.853Z,86.12
2019-02-09T05:58:51.856Z,85.39
2019-02-09T05:59:51.831Z,85.81
2019-02-09T06:00:51.842Z,86.36
2019-02-09T06:01:51.804Z,86.05
2019-02-09T06:02:51.795Z,86.02
2019-02-09T06:03:51.783Z,85.95
2019-02-09T06:04:51.779Z,86.36
2019-02-09T06:05:51.783Z,85.75
2019-02-09T06:06:51.752Z,85.71
2019-02-09T06:07:51.736Z,86.22
2019-02-09T06:08:51.727Z,85.64
2019-02-09T06:09:51.717Z,85.60
2019-02-09T06:10:51.754Z,86.02
2019-02-09T06:11:51.693Z,85.33
2019-02-09T06:12:51.682Z,85.81
2019-02-09T06:13:51.671Z,84.99
2019-02-09T06:14:51.660Z,85.64
2019-02-09T06:15:51.674Z,83.85
2019-02-09T06:16:51.655Z,84.36
2019-02-09T06:17:51.628Z,83.33
2019-02-09T06:18:51.615Z,83.33
2019-02-09T06:19:51.603Z,83.33
2019-02-09T06:20:51.672Z,83.33
2019-02-09T06:21:51.583Z,83.50
2019-02-09T06:22:51.583Z,83.54
2019-02-09T06:23:51.566Z,84.06
2019-02-09T06:24:51.553Z,83.33
2019-02-09T06:25:51.561Z,83.64
2019-02-09T06:26:51.547Z,83.58
2019-02-09T06:27:51.519Z,83.58
2019-02-09T06:28:51.506Z,83.89
2019-02-09T06:29:51.497Z,83.64
2019-02-09T06:30:51.521Z,83.48
2019-02-09T06:31:51.957Z,83.54
2019-02-09T06:32:51.462Z,83.54
2019-02-09T06:33:51.453Z,83.64
2019-02-09T06:34:51.438Z,83.33
2019-02-09T06:35:51.451Z,83.13
2019-02-09T06:36:51.420Z,82.61
2019-02-09T06:37:51.410Z,82.82
2019-02-09T06:38:51.393Z,82.61
2019-02-09T06:39:51.385Z,81.68
2019-02-09T06:40:51.452Z,81.79
2019-02-09T06:41:51.364Z,80.93
2019-02-09T06:42:51.352Z,81.65
2019-02-09T06:43:51.346Z,82.06
2019-02-09T06:44:51.329Z,80.96
2019-02-09T06:45:51.319Z,80.41
2019-02-09T06:46:51.335Z,80.62
2019-02-09T06:47:51.297Z,80.41
2019-02-09T06:48:51.285Z,80.10
2019-02-09T06:49:51.293Z,80.10
2019-02-09T06:50:51.264Z,79.48
2019-02-09T06:51:51.277Z,80.06
2019-02-09T06:52:51.254Z,79.17
2019-02-09T06:53:51.231Z,79.90
2019-02-09T06:54:51.217Z,79.69
2019-02-09T06:55:51.212Z,79.69
2019-02-09T06:56:51.220Z,79.90
2019-02-09T06:57:51.211Z,80.62
2019-02-09T06:58:51.187Z,79.52
2019-02-09T06:59:51.169Z,80.24
2019-02-09T07:00:51.152Z,79.48
2019-02-09T07:01:51.194Z,79.27
2019-02-09T07:02:51.136Z,78.66
2019-02-09T07:03:51.120Z,77.08
2019-02-09T07:04:51.109Z,77.48
2019-02-09T07:05:51.097Z,78.00
2019-02-09T07:06:51.109Z,76.80
2019-02-09T07:07:51.132Z,77.38
2019-02-09T07:08:51.064Z,77.38
2019-02-09T07:09:51.057Z,77.31
2019-02-09T07:10:51.042Z,77.08
2019-02-09T07:11:51.054Z,77.48
2019-02-09T07:12:51.035Z,77.59
2019-02-09T07:13:51.021Z,77.48
2019-02-09T07:14:50.998Z,77.28
2019-02-09T07:15:50.987Z,77.28
2019-02-09T07:16:51.001Z,77.42
2019-02-09T07:17:50.967Z,78.11
2019-02-09T07:18:50.955Z,77.59
2019-02-09T07:19:50.963Z,78.04
2019-02-09T07:20:50.931Z,77.80
2019-02-09T07:21:50.944Z,77.59
2019-02-09T07:22:50.908Z,77.69
2019-02-09T07:23:50.899Z,77.94
2019-02-09T07:24:50.922Z,78.04
2019-02-09T07:25:50.878Z,77.28
2019-02-09T07:26:50.928Z,77.42
2019-02-09T07:27:50.853Z,77.94
2019-02-09T07:28:50.844Z,77.11
2019-02-09T07:29:50.831Z,76.97
2019-02-09T07:30:50.824Z,77.28
2019-02-09T07:31:56.383Z,77.38
2019-02-09T07:32:51.824Z,77.08
2019-02-09T07:33:50.790Z,76.49
2019-02-09T07:34:50.781Z,76.56
2019-02-09T07:35:50.766Z,75.73
2019-02-09T07:36:50.782Z,75.98
2019-02-09T07:37:50.743Z,75.63
2019-02-09T07:38:50.742Z,76.39
2019-02-09T07:39:50.734Z,75.67
2019-02-09T07:40:50.710Z,75.73
2019-02-09T07:41:50.697Z,75.94
2019-02-09T07:42:50.712Z,75.43
2019-02-09T07:43:50.677Z,75.39
2019-02-09T07:44:50.681Z,75.22
2019-02-09T07:45:50.653Z,75.22
2019-02-09T07:46:50.643Z,75.01
2019-02-09T07:47:50.662Z,74.80
2019-02-09T07:48:50.620Z,75.01
2019-02-09T07:49:50.612Z,75.22
2019-02-09T07:50:50.603Z,74.98
2019-02-09T07:51:50.603Z,75.01
2019-02-09T07:52:50.601Z,74.80
2019-02-09T07:53:50.565Z,74.98
2019-02-09T07:54:50.556Z,74.77
2019-02-09T07:55:50.542Z,75.18
2019-02-09T07:56:50.535Z,75.08
2019-02-09T07:57:50.565Z,74.88
2019-02-09T07:58:50.522Z,75.39
2019-02-09T07:59:50.498Z,75.08
2019-02-09T08:00:50.487Z,75.12
2019-02-09T08:01:50.477Z,76.11
2019-02-09T08:02:50.488Z,75.29
2019-02-09T08:03:50.466Z,75.08
2019-02-09T08:04:50.444Z,75.32
2019-02-09T08:05:50.431Z,75.84
2019-02-09T08:06:50.421Z,76.46
2019-02-09T08:07:50.437Z,75.22
2019-02-09T08:08:50.400Z,75.84
2019-02-09T08:09:50.403Z,76.87
2019-02-09T08:10:50.379Z,76.46
2019-02-09T08:11:50.366Z,76.76
2019-02-09T08:12:50.380Z,76.25
2019-02-09T08:13:50.344Z,76.25
2019-02-09T08:14:50.334Z,77.18
2019-02-09T08:15:50.347Z,77.08
2019-02-09T08:16:50.310Z,76.66
2019-02-09T08:17:50.322Z,76.46
2019-02-09T08:18:50.290Z,76.56
2019-02-09T08:19:50.299Z,76.49
2019-02-09T08:20:50.266Z,77.08
2019-02-09T08:21:50.281Z,76.70
2019-02-09T08:22:50.266Z,76.56
2019-02-09T08:23:50.236Z,76.66
2019-02-09T08:24:50.222Z,75.84
2019-02-09T08:25:50.209Z,76.15
2019-02-09T08:26:50.201Z,76.46
2019-02-09T08:27:50.226Z,76.04
2019-02-09T08:28:50.201Z,76.25
2019-02-09T08:29:50.171Z,76.15
2019-02-09T08:30:50.153Z,76.15
2019-02-09T08:31:50.143Z,75.94
2019-02-09T08:32:50.155Z,76.35
2019-02-09T08:33:50.120Z,76.66
2019-02-09T08:34:50.123Z,76.42
2019-02-09T08:35:50.099Z,75.53
2019-02-09T08:36:50.087Z,74.67
2019-02-09T08:37:50.105Z,74.88
2019-02-09T08:38:50.064Z,74.98
2019-02-09T08:39:50.052Z,75.18
2019-02-09T08:40:50.049Z,75.08
2019-02-09T08:41:50.034Z,74.26
2019-02-09T08:42:50.025Z,74.05
2019-02-09T08:43:50.032Z,73.95
2019-02-09T08:44:49.999Z,74.36
2019-02-09T08:45:49.984Z,73.95
2019-02-09T08:46:49.988Z,73.95
2019-02-09T08:47:49.962Z,74.02
2019-02-09T08:48:49.974Z,73.43
2019-02-09T08:49:49.943Z,73.61
2019-02-09T08:50:49.933Z,73.40
2019-02-09T08:51:49.919Z,72.68
2019-02-09T08:52:49.934Z,72.16
2019-02-09T08:53:49.925Z,72.27
2019-02-09T08:54:49.885Z,73.06
2019-02-09T08:55:49.873Z,72.24
2019-02-09T08:56:49.862Z,72.54
2019-02-09T08:57:49.854Z,71.75
2019-02-09T08:58:49.866Z,71.65
2019-02-09T08:59:49.831Z,71.62
2019-02-09T09:00:49.819Z,71.92
2019-02-09T09:01:49.806Z,71.20
2019-02-09T09:02:49.795Z,71.41
2019-02-09T09:03:49.811Z,71.51
2019-02-09T09:04:49.791Z,71.62
2019-02-09T09:05:49.767Z,71.58
2019-02-09T09:06:49.771Z,71.17
2019-02-09T09:07:49.741Z,70.79
2019-02-09T09:08:49.752Z,70.97
2019-02-09T09:09:49.720Z,69.84
2019-02-09T09:10:49.709Z,70.14
2019-02-09T09:11:49.705Z,69.70
2019-02-09T09:12:49.718Z,69.60
2019-02-09T09:13:49.696Z,69.18
2019-02-09T09:14:49.672Z,69.18
2019-02-09T09:15:49.656Z,68.98
2019-02-09T09:16:49.642Z,69.80
2019-02-09T09:17:49.630Z,70.35
2019-02-09T09:18:49.667Z,70.66
2019-02-09T09:19:49.609Z,69.80
2019-02-09T09:20:49.597Z,69.80
2019-02-09T09:21:49.585Z,69.60
2019-02-09T09:22:49.574Z,70.21
2019-02-09T09:23:49.564Z,68.98
2019-02-09T09:24:49.590Z,69.39
2019-02-09T09:25:49.542Z,69.22
2019-02-09T09:26:49.531Z,68.98
2019-02-09T09:27:49.520Z,69.09
2019-02-09T09:28:49.512Z,68.98
2019-02-09T09:29:49.527Z,69.09
2019-02-09T09:30:49.487Z,69.49
2019-02-09T09:31:49.486Z,68.54
2019-02-09T09:32:49.465Z,69.15
2019-02-09T09:33:49.477Z,68.98
2019-02-09T09:34:49.467Z,69.09
2019-02-09T09:35:49.435Z,69.29
2019-02-09T09:36:49.429Z,69.49
2019-02-09T09:37:49.441Z,69.63
2019-02-09T09:38:49.418Z,69.39
2019-02-09T09:39:49.428Z,69.80
2019-02-09T09:40:49.375Z,70.01
2019-02-09T09:41:49.365Z,69.29
2019-02-09T09:42:49.359Z,70.01
2019-02-09T09:43:49.347Z,69.70
2019-02-09T09:44:49.374Z,69.49
2019-02-09T09:45:49.323Z,69.39
2019-02-09T09:46:49.321Z,68.98
2019-02-09T09:47:49.297Z,69.60
2019-02-09T09:48:49.286Z,69.49
2019-02-09T09:49:49.316Z,68.85
2019-02-09T09:50:49.273Z,68.64
2019-02-09T09:51:49.252Z,68.43
2019-02-09T09:52:49.242Z,68.98
2019-02-09T09:53:49.231Z,68.98
2019-02-09T09:54:49.252Z,69.56
2019-02-09T09:55:49.207Z,68.43
2019-02-09T09:56:49.199Z,68.88
2019-02-09T09:57:49.188Z,68.23
2019-02-09T09:58:49.176Z,68.77
2019-02-09T09:59:49.190Z,69.18
2019-02-09T10:00:49.161Z,68.98
2019-02-09T10:01:49.148Z,68.88
2019-02-09T10:02:49.132Z,68.95
2019-02-09T10:03:49.124Z,69.05
2019-02-09T10:04:49.132Z,69.60
2019-02-09T10:05:49.097Z,68.98
2019-02-09T10:06:49.087Z,69.18
2019-02-09T10:07:49.086Z,68.77
2019-02-09T10:08:49.071Z,68.95
2019-02-09T10:09:49.079Z,68.43
2019-02-09T10:10:49.044Z,68.64
2019-02-09T10:11:49.052Z,68.64
2019-02-09T10:12:49.019Z,68.43
2019-02-09T10:13:49.027Z,69.15
2019-02-09T10:14:49.026Z,68.30
2019-02-09T10:15:48.998Z,67.48
2019-02-09T10:16:48.977Z,66.35
2019-02-09T10:17:48.965Z,66.63
2019-02-09T10:18:48.954Z,66.93
2019-02-09T10:19:48.982Z,66.35
2019-02-09T10:20:48.931Z,66.45
2019-02-09T10:21:48.923Z,65.80
2019-02-09T10:22:48.911Z,66.22
2019-02-09T10:23:48.900Z,65.50
2019-02-09T10:24:48.929Z,66.22
2019-02-09T10:25:48.887Z,65.88
2019-02-09T10:26:48.866Z,65.57
2019-02-09T10:27:48.861Z,66.31
2019-02-09T10:28:48.845Z,65.09
2019-02-09T10:29:48.831Z,66.31
2019-02-09T10:30:48.845Z,65.91
2019-02-09T10:31:48.809Z,65.98
2019-02-09T10:32:48.826Z,66.83
2019-02-09T10:33:48.786Z,65.80
2019-02-09T10:34:48.774Z,66.22
2019-02-09T10:35:48.786Z,66.63
2019-02-09T10:36:48.755Z,65.50
2019-02-09T10:37:48.747Z,65.50
2019-02-09T10:38:48.741Z,65.60
2019-02-09T10:39:48.721Z,65.29
2019-02-09T10:40:48.731Z,65.88
2019-02-09T10:41:48.696Z,65.88
2019-02-09T10:42:48.686Z,65.50
2019-02-09T10:43:48.675Z,65.88
2019-02-09T10:44:48.667Z,66.01
2019-02-09T10:45:48.694Z,65.91
2019-02-09T10:46:48.639Z,65.70
2019-02-09T10:47:48.630Z,66.63
2019-02-09T10:48:48.622Z,66.66
2019-02-09T10:49:48.623Z,66.22
2019-02-09T10:50:48.621Z,67.07
2019-02-09T10:51:48.583Z,67.07
2019-02-09T10:52:48.600Z,67.10
2019-02-09T10:53:48.561Z,67.17
2019-02-09T10:54:48.551Z,66.66
2019-02-09T10:55:48.567Z,67.38
2019-02-09T10:56:48.529Z,66.66
2019-02-09T10:57:48.523Z,66.45
2019-02-09T10:58:48.529Z,66.14
2019-02-09T10:59:48.501Z,66.52
2019-02-09T11:00:48.526Z,66.73
2019-02-09T11:01:48.486Z,67.07
2019-02-09T11:02:52.255Z,67.07
2019-02-09T11:03:48.451Z,67.17
2019-02-09T11:04:48.472Z,66.66
2019-02-09T11:05:48.453Z,66.42
2019-02-09T11:06:48.417Z,67.27
2019-02-09T11:07:48.405Z,67.03
2019-02-09T11:08:48.395Z,66.93
2019-02-09T11:09:48.384Z,66.45
2019-02-09T11:10:48.422Z,67.07
2019-02-09T11:11:48.362Z,66.76
2019-02-09T11:12:48.353Z,65.94
2019-02-09T11:13:48.340Z,66.55
2019-02-09T11:14:48.329Z,66.52
2019-02-09T11:15:48.342Z,65.60
2019-02-09T11:16:48.315Z,65.36
2019-02-09T11:17:48.298Z,64.92
2019-02-09T11:18:48.303Z,65.74
2019-02-09T11:19:48.279Z,65.12
2019-02-09T11:20:48.290Z,63.76
2019-02-09T11:21:48.252Z,64.17
2019-02-09T11:22:48.243Z,63.69
2019-02-09T11:23:48.231Z,63.42
2019-02-09T11:24:48.218Z,64.03
2019-02-09T11:25:48.252Z,63.72
2019-02-09T11:26:48.195Z,63.51
2019-02-09T11:27:48.185Z,63.72
2019-02-09T11:28:48.173Z,63.42
2019-02-09T11:29:48.180Z,63.31
2019-02-09T11:30:48.176Z,63.10
2019-02-09T11:31:48.168Z,63.31
2019-02-09T11:32:48.127Z,63.31
2019-02-09T11:33:48.117Z,63.31
2019-02-09T11:34:48.109Z,63.00
2019-02-09T11:35:48.119Z,63.42
2019-02-09T11:36:48.086Z,63.31
2019-02-09T11:37:48.086Z,63.72
2019-02-09T11:38:48.090Z,62.87
2019-02-09T11:39:48.054Z,62.87
2019-02-09T11:40:48.061Z,62.98
2019-02-09T11:41:48.030Z,61.95
2019-02-09T11:42:48.018Z,61.64
2019-02-09T11:43:48.012Z,61.64
2019-02-09T11:44:48.022Z,60.82
2019-02-09T11:45:48.005Z,61.57
2019-02-09T11:46:47.977Z,60.85
2019-02-09T11:47:47.960Z,61.26
2019-02-09T11:48:47.951Z,60.64
2019-02-09T11:49:47.937Z,61.98
2019-02-09T11:50:47.957Z,62.26
2019-02-09T11:51:47.917Z,61.95
2019-02-09T11:52:47.905Z,62.46
2019-02-09T11:53:47.893Z,62.23
2019-02-09T11:54:47.883Z,61.92
2019-02-09T11:55:47.894Z,61.89
2019-02-09T11:56:47.881Z,61.51
2019-02-09T11:57:47.861Z,62.02
2019-02-09T11:58:47.836Z,62.12
2019-02-09T11:59:47.828Z,62.43
2019-02-09T12:00:47.838Z,62.54
2019-02-09T12:01:47.806Z,63.18
2019-02-09T12:02:47.792Z,62.66
2019-02-09T12:03:47.786Z,62.87
2019-02-09T12:04:47.787Z,62.43
2019-02-09T12:05:47.826Z,63.07
2019-02-09T12:06:48.023Z,63.49
2019-02-09T12:07:47.738Z,63.42
2019-02-09T12:08:47.727Z,63.82
2019-02-09T12:09:47.725Z,63.34
2019-02-09T12:10:47.707Z,63.65
2019-02-09T12:11:47.718Z,64.06
2019-02-09T12:12:47.681Z,64.88
2019-02-09T12:13:55.033Z,64.67
2019-02-09T12:14:48.657Z,63.34
2019-02-09T12:15:47.658Z,64.34
2019-02-09T12:16:47.680Z,63.85
2019-02-09T12:17:47.624Z,64.06
2019-02-09T12:18:47.615Z,64.75
2019-02-09T12:19:47.621Z,64.44
2019-02-09T12:20:47.593Z,63.42
2019-02-09T12:21:47.607Z,63.82
2019-02-09T12:22:47.602Z,63.21
2019-02-09T12:23:47.561Z,63.51
2019-02-09T12:24:47.548Z,63.82
2019-02-09T12:25:47.538Z,64.64
2019-02-09T12:26:47.549Z,64.06
2019-02-09T12:27:47.522Z,64.78
2019-02-09T12:28:47.511Z,64.44
2019-02-09T12:29:47.510Z,63.93
2019-02-09T12:30:47.489Z,64.06
2019-02-09T12:31:47.501Z,64.23
2019-02-09T12:32:47.461Z,63.82
2019-02-09T12:33:47.478Z,63.42
2019-02-09T12:34:47.458Z,63.51
2019-02-09T12:35:47.427Z,63.93
2019-02-09T12:36:47.440Z,64.41
2019-02-09T12:37:47.463Z,64.00
2019-02-09T12:38:47.394Z,63.59
2019-02-09T12:39:47.387Z,63.28
2019-02-09T12:40:47.378Z,63.79
2019-02-09T12:41:47.383Z,63.59
2019-02-09T12:42:47.350Z,63.79
2019-02-09T12:43:47.354Z,63.79
2019-02-09T12:44:47.341Z,63.07
2019-02-09T12:45:47.323Z,63.05
2019-02-09T12:46:47.335Z,63.39
2019-02-09T12:47:47.297Z,63.90
2019-02-09T12:48:47.288Z,63.25
2019-02-09T12:49:47.279Z,62.84
2019-02-09T12:50:47.272Z,63.32
2019-02-09T12:51:47.284Z,62.61
2019-02-09T12:52:47.238Z,62.51